Time;durP1;ratioP1;P1;durP2;ratioP2;P2;SDS_P1;SDS_P2;PMS_P1;PMS_P2;Temp;Humidity;BMP_temperature;BMP_pressure;BME280_temperature;BME280_humidity;BME280_pressure;Samples;Min_cycle;Max_cycle;Signal;HPM_P1;HPM_P2
2020/12/24 00:01:04;;;;;;;1.85;1.65;;;9.50;99.90;;;;;;4991412;28;20030;-79
2020/12/24 00:03:29;;;;;;;7.38;1.90;;;9.50;99.90;;;;;;4990747;28;20386;-79
2020/12/24 00:05:55;;;;;;;9.98;1.40;;;9.50;99.90;;;;;;4989551;28;20046;-79
2020/12/24 00:08:21;;;;;;;6.25;1.83;;;9.40;99.90;;;;;;4989775;28;20030;-79
2020/12/24 00:10:50;;;;;;;10.43;2.63;;;9.40;99.90;;;;;;4989321;28;20053;-79
2020/12/24 00:13:16;;;;;;;3.25;1.45;;;9.50;99.90;;;;;;4991186;28;20511;-79
2020/12/24 00:15:43;;;;;;;2.38;1.30;;;9.50;99.90;;;;;;4988520;28;20486;-79
2020/12/24 00:18:09;;;;;;;3.83;0.98;;;9.50;99.90;;;;;;4989349;28;20495;-79
2020/12/24 00:20:35;;;;;;;1.90;1.25;;;9.50;99.90;;;;;;4989649;28;20026;-79
2020/12/24 00:23:02;;;;;;;4.65;1.33;;;9.50;99.90;;;;;;4990295;28;20039;-80
2020/12/24 00:25:27;;;;;;;3.42;1.45;;;9.50;99.90;;;;;;4989392;28;20081;-79
2020/12/24 00:27:53;;;;;;;4.80;1.25;;;9.50;99.90;;;;;;4988641;28;20475;-79
2020/12/24 00:30:18;;;;;;;3.92;1.17;;;9.50;99.90;;;;;;4991213;28;20023;-79
2020/12/24 00:32:44;;;;;;;8.48;1.77;;;9.50;99.90;;;;;;4991489;28;20486;-80
2020/12/24 00:35:09;;;;;;;12.32;2.05;;;9.50;99.90;;;;;;4990839;28;20475;-80
2020/12/24 00:37:35;;;;;;;3.42;1.35;;;9.50;99.90;;;;;;4991348;28;20041;-80
2020/12/24 00:40:02;;;;;;;5.15;1.50;;;9.50;99.90;;;;;;4990998;28;20030;-80
2020/12/24 00:42:27;;;;;;;8.90;1.52;;;9.50;99.90;;;;;;4989721;28;20049;-80
2020/12/24 00:44:53;;;;;;;6.05;2.55;;;9.60;99.90;;;;;;4989331;28;20038;-80
2020/12/24 00:47:19;;;;;;;16.70;1.92;;;9.60;99.90;;;;;;4991597;28;20025;-81
2020/12/24 00:49:44;;;;;;;9.35;1.85;;;9.60;99.90;;;;;;4986866;28;20024;-80
2020/12/24 00:52:10;;;;;;;10.52;1.40;;;9.60;99.90;;;;;;4989196;28;20034;-79
2020/12/24 00:54:35;;;;;;;14.10;3.42;;;9.60;99.90;;;;;;4987402;28;20093;-80
2020/12/24 00:57:01;;;;;;;8.75;2.03;;;9.50;99.90;;;;;;4989521;28;20026;-80
2020/12/24 00:59:26;;;;;;;4.00;1.48;;;9.50;99.90;;;;;;4989608;28;20022;-80
2020/12/24 01:01:52;;;;;;;2.72;1.38;;;9.40;99.90;;;;;;4990364;28;20479;-80
2020/12/24 01:04:18;;;;;;;6.82;1.77;;;9.50;99.90;;;;;;4992551;28;21961;-80
2020/12/24 01:06:43;;;;;;;8.82;2.33;;;9.50;99.90;;;;;;5006338;28;20042;-80
2020/12/24 01:09:09;;;;;;;3.65;1.50;;;9.50;99.90;;;;;;5008169;28;20023;-80
2020/12/24 01:11:34;;;;;;;3.53;1.05;;;9.50;99.90;;;;;;5010360;28;20030;-79
2020/12/24 01:14:00;;;;;;;5.38;1.55;;;9.40;99.90;;;;;;5010271;28;20051;-79
2020/12/24 01:16:26;;;;;;;9.65;1.27;;;9.40;99.90;;;;;;5011734;28;20463;-80
2020/12/24 01:18:51;;;;;;;2.58;0.68;;;9.40;99.90;;;;;;5011939;28;20049;-80
2020/12/24 01:21:17;;;;;;;7.18;1.20;;;9.40;99.90;;;;;;5012858;28;20050;-79
2020/12/24 01:23:43;;;;;;;7.90;1.40;;;9.40;99.90;;;;;;5013479;28;20040;-80
2020/12/24 01:26:09;;;;;;;8.73;1.98;;;9.40;99.90;;;;;;4999694;28;20026;-79
2020/12/24 01:28:35;;;;;;;4.07;1.38;;;9.40;99.90;;;;;;4994975;28;20026;-79
2020/12/24 01:31:01;;;;;;;7.32;0.88;;;9.30;99.90;;;;;;4983387;28;20041;-79
2020/12/24 01:33:28;;;;;;;3.80;0.80;;;9.30;99.90;;;;;;4992030;28;20483;-79
2020/12/24 01:35:54;;;;;;;4.13;0.73;;;9.30;99.90;;;;;;4989050;28;20045;-79
2020/12/24 01:38:20;;;;;;;3.13;0.95;;;9.30;99.90;;;;;;4990532;28;20026;-79
2020/12/24 01:40:46;;;;;;;8.32;1.38;;;9.20;99.90;;;;;;4989521;28;20053;-80
2020/12/24 01:43:12;;;;;;;4.78;1.00;;;9.30;99.90;;;;;;4986532;28;20027;-79
2020/12/24 01:45:38;;;;;;;6.72;1.75;;;9.30;99.90;;;;;;4985558;28;20084;-79
2020/12/24 01:48:03;;;;;;;6.90;1.35;;;9.30;99.90;;;;;;4985718;28;20031;-80
2020/12/24 01:50:29;;;;;;;12.75;1.55;;;9.20;99.90;;;;;;4987532;28;20062;-79
2020/12/24 01:53:23;;;;;;;8.70;1.27;;;9.30;99.90;;;;;;4992894;28;20053;-79
2020/12/24 01:55:49;;;;;;;6.70;1.63;;;9.30;99.90;;;;;;4988157;28;20505;-79
2020/12/24 01:58:16;;;;;;;5.47;1.15;;;9.20;99.90;;;;;;4979606;28;20046;-79
2020/12/24 02:00:46;;;;;;;5.68;1.75;;;9.20;99.90;;;;;;4985074;28;20018;-79
2020/12/24 02:03:12;;;;;;;7.30;1.38;;;9.30;99.90;;;;;;4986716;28;20118;-79
2020/12/24 02:05:38;;;;;;;4.10;1.20;;;9.30;99.90;;;;;;4985841;28;20030;-79
2020/12/24 02:08:03;;;;;;;7.82;0.93;;;9.30;99.90;;;;;;4988355;28;20042;-79
2020/12/24 02:10:29;;;;;;;10.13;1.10;;;9.30;99.90;;;;;;4988716;28;20455;-79
2020/12/24 02:12:55;;;;;;;5.97;0.90;;;9.30;99.90;;;;;;4987643;28;20602;-80
2020/12/24 02:15:21;;;;;;;7.30;1.13;;;9.30;99.90;;;;;;4990915;28;20038;-79
2020/12/24 02:17:46;;;;;;;7.88;1.20;;;9.30;99.90;;;;;;4983596;28;20104;-79
2020/12/24 02:20:12;;;;;;;6.40;1.08;;;9.40;99.90;;;;;;4991976;28;20022;-79
2020/12/24 02:22:37;;;;;;;7.20;0.82;;;9.40;99.90;;;;;;4985882;28;20388;-79
2020/12/24 02:25:03;;;;;;;9.95;1.00;;;9.30;99.90;;;;;;4990064;28;20090;-79
2020/12/24 02:27:29;;;;;;;9.70;1.17;;;9.20;99.90;;;;;;4977000;28;20074;-79
2020/12/24 02:29:55;;;;;;;2.35;0.80;;;9.20;99.90;;;;;;4982044;28;20026;-79
2020/12/24 02:32:20;;;;;;;4.63;0.95;;;9.20;99.90;;;;;;4988414;28;20027;-79
2020/12/24 02:34:46;;;;;;;2.47;0.70;;;9.30;99.90;;;;;;4989542;28;20030;-79
2020/12/24 02:37:12;;;;;;;8.23;0.73;;;9.20;99.90;;;;;;4993652;28;20035;-79
2020/12/24 02:39:38;;;;;;;6.30;0.98;;;9.10;99.90;;;;;;4981489;28;20027;-79
2020/12/24 02:42:04;;;;;;;7.20;1.98;;;9.10;99.90;;;;;;4993082;28;20037;-79
2020/12/24 02:44:29;;;;;;;5.18;0.82;;;9.10;99.90;;;;;;4993171;28;20027;-80
2020/12/24 02:46:55;;;;;;;3.90;0.82;;;9.00;99.90;;;;;;4985288;28;20081;-80
2020/12/24 02:49:20;;;;;;;4.07;0.70;;;9.10;99.90;;;;;;4991181;28;20023;-79
2020/12/24 02:51:46;;;;;;;4.50;1.40;;;9.10;99.90;;;;;;4982761;28;20097;-81
2020/12/24 02:54:11;;;;;;;6.32;0.75;;;9.20;99.90;;;;;;4989834;28;20039;-79
2020/12/24 02:56:37;;;;;;;6.60;0.77;;;9.10;99.90;;;;;;4993194;28;20031;-79
2020/12/24 02:59:03;;;;;;;8.27;0.57;;;9.10;99.90;;;;;;4990768;28;20026;-79
2020/12/24 03:01:28;;;;;;;3.75;0.55;;;9.20;99.90;;;;;;4983160;28;20040;-79
2020/12/24 03:03:54;;;;;;;4.50;1.17;;;9.20;99.90;;;;;;4987615;28;20395;-79
2020/12/24 03:06:19;;;;;;;5.57;0.90;;;9.20;99.90;;;;;;4991305;28;20031;-79
2020/12/24 03:08:45;;;;;;;8.05;1.20;;;9.20;99.90;;;;;;4997286;28;20031;-79
2020/12/24 03:11:10;;;;;;;3.88;0.60;;;9.20;99.90;;;;;;5007231;28;20033;-80
2020/12/24 03:13:36;;;;;;;3.70;0.73;;;9.20;99.90;;;;;;5006278;28;20006;-79
2020/12/24 03:16:02;;;;;;;5.20;1.15;;;9.10;99.90;;;;;;5018621;28;20015;-79
2020/12/24 03:18:27;;;;;;;5.32;0.60;;;9.10;99.90;;;;;;5015985;28;20034;-81
2020/12/24 03:20:53;;;;;;;8.05;0.80;;;9.10;99.90;;;;;;5008232;28;20074;-80
2020/12/24 03:23:19;;;;;;;5.97;1.10;;;9.10;99.90;;;;;;5019456;28;20021;-81
2020/12/24 03:25:44;;;;;;;6.65;0.90;;;9.10;99.90;;;;;;5012654;28;20038;-80
2020/12/24 03:28:10;;;;;;;5.93;3.08;;;9.00;99.90;;;;;;5008786;28;20031;-79
2020/12/24 03:30:35;;;;;;;3.30;2.75;;;8.90;99.90;;;;;;5004595;28;20490;-79
2020/12/24 03:33:01;;;;;;;4.93;3.15;;;8.70;99.90;;;;;;4997516;28;20109;-79
2020/12/24 03:35:26;;;;;;;6.32;2.83;;;8.50;99.90;;;;;;4985372;28;20031;-79
2020/12/24 03:37:52;;;;;;;2.78;2.50;;;8.40;99.90;;;;;;4992326;28;20027;-79
2020/12/24 03:40:18;;;;;;;3.58;2.15;;;8.40;99.90;;;;;;4987653;28;20018;-79
2020/12/24 03:42:43;;;;;;;2.13;1.90;;;8.40;99.90;;;;;;4989412;28;20464;-80
2020/12/24 03:45:09;;;;;;;1.90;1.50;;;8.10;99.90;;;;;;4979414;28;20510;-80
2020/12/24 03:47:35;;;;;;;1.48;1.23;;;8.00;99.90;;;;;;4985177;28;20034;-79
2020/12/24 03:50:00;;;;;;;1.30;1.20;;;7.90;99.90;;;;;;4990266;28;20018;-79
2020/12/24 03:52:26;;;;;;;1.55;1.40;;;7.80;99.90;;;;;;4989327;28;20018;-79
2020/12/24 03:54:52;;;;;;;1.58;1.20;;;7.60;99.90;;;;;;4992385;28;20037;-81
2020/12/24 03:57:18;;;;;;;1.45;1.30;;;7.50;99.90;;;;;;4986793;28;20034;-82
2020/12/24 03:59:43;;;;;;;1.23;1.13;;;7.40;99.90;;;;;;4986340;28;20069;-82
2020/12/24 04:02:09;;;;;;;3.08;1.13;;;7.40;99.90;;;;;;4989410;28;20019;-81
2020/12/24 04:04:34;;;;;;;1.55;1.05;;;7.20;99.90;;;;;;4987835;28;20041;-82
2020/12/24 04:07:00;;;;;;;7.53;1.23;;;7.10;99.90;;;;;;4985159;28;20121;-82
2020/12/24 04:09:26;;;;;;;5.65;1.00;;;7.10;99.90;;;;;;4990501;28;20022;-80
2020/12/24 04:11:51;;;;;;;1.42;0.80;;;7.20;99.90;;;;;;4983854;28;20495;-79
2020/12/24 04:14:17;;;;;;;3.13;1.20;;;7.00;99.90;;;;;;4993454;28;20042;-79
2020/12/24 04:16:42;;;;;;;0.70;0.70;;;6.70;99.90;;;;;;4995951;28;20038;-80
2020/12/24 04:19:08;;;;;;;2.22;1.10;;;6.40;99.90;;;;;;4993741;28;20121;-80
2020/12/24 04:21:34;;;;;;;1.20;1.02;;;6.40;99.90;;;;;;4990901;28;20038;-79
2020/12/24 04:23:59;;;;;;;3.22;1.00;;;6.30;99.90;;;;;;4990641;28;20030;-79
2020/12/24 04:26:25;;;;;;;1.58;0.60;;;6.20;99.90;;;;;;5022906;28;20030;-79
2020/12/24 04:28:51;;;;;;;0.40;0.40;;;6.10;99.90;;;;;;4976380;28;20043;-78
2020/12/24 04:31:16;;;;;;;1.00;0.57;;;5.90;99.90;;;;;;4979731;28;20101;-78
2020/12/24 04:33:43;;;;;;;1.75;0.43;;;5.70;99.90;;;;;;4985771;28;20038;-79
2020/12/24 04:36:09;;;;;;;0.70;0.50;;;5.60;99.90;;;;;;4995452;28;20178;-78
2020/12/24 04:38:34;;;;;;;0.30;0.30;;;5.50;99.90;;;;;;4976752;28;20031;-79
2020/12/24 04:41:01;;;;;;;2.90;0.40;;;5.50;99.90;;;;;;4988603;28;20030;-80
2020/12/24 04:43:27;;;;;;;0.20;0.20;;;5.40;99.90;;;;;;4983738;28;20078;-79
2020/12/24 04:45:54;;;;;;;0.68;0.10;;;5.40;99.90;;;;;;4983481;28;20045;-79
2020/12/24 04:48:20;;;;;;;0.10;0.10;;;5.40;99.90;;;;;;4980025;28;20495;-80
2020/12/24 04:50:51;;;;;;;0.20;0.20;;;5.20;99.90;;;;;;4978955;28;20042;-80
2020/12/24 04:53:18;;;;;;;0.20;0.20;;;5.20;99.90;;;;;;4997013;28;20039;-79
2020/12/24 04:55:43;;;;;;;2.40;0.30;;;5.10;99.90;;;;;;5001361;28;20043;-80
2020/12/24 04:58:10;;;;;;;0.50;0.22;;;5.00;99.90;;;;;;5014569;28;20066;-80
2020/12/24 05:00:39;;;;;;;0.20;0.20;;;5.00;99.90;;;;;;5012224;28;20021;-79
2020/12/24 05:03:12;;;;;;;0.90;0.30;;;4.90;99.90;;;;;;5015631;28;20078;-79
2020/12/24 05:05:38;;;;;;;0.30;0.22;;;4.90;99.90;;;;;;5009395;28;20081;-79
2020/12/24 05:08:06;;;;;;;0.68;0.20;;;4.70;99.90;;;;;;4981672;28;20147;-79
2020/12/24 05:10:33;;;;;;;0.52;0.52;;;4.70;99.90;;;;;;4977719;28;20039;-79
2020/12/24 05:12:59;;;;;;;0.55;0.20;;;4.60;99.90;;;;;;4985503;28;20542;-79
2020/12/24 05:15:29;;;;;;;0.30;0.30;;;4.60;99.90;;;;;;4979109;28;20073;-79
2020/12/24 05:18:12;;;;;;;0.20;0.20;;;4.50;99.90;;;;;;4986904;28;20071;-79
2020/12/24 05:20:39;;;;;;;0.15;0.10;;;4.50;99.90;;;;;;4991879;28;20560;-79
2020/12/24 05:23:13;;;;;;;0.47;0.20;;;4.40;99.90;;;;;;4994058;28;20335;-80
2020/12/24 05:25:39;;;;;;;1.27;1.20;;;4.40;99.90;;;;;;5002392;28;20058;-79
2020/12/24 05:28:04;;;;;;;0.10;0.10;;;4.40;99.90;;;;;;4996234;28;20022;-79
2020/12/24 05:30:31;;;;;;;0.10;0.10;;;4.40;99.90;;;;;;5006256;28;20030;-79
2020/12/24 05:32:57;;;;;;;1.42;0.25;;;4.40;99.90;;;;;;5006051;28;20423;-79
2020/12/24 05:35:24;;;;;;;0.20;0.20;;;4.40;99.90;;;;;;5003914;28;20026;-79
2020/12/24 05:37:52;;;;;;;0.57;0.20;;;4.40;99.90;;;;;;4995301;28;20463;-81
2020/12/24 05:40:30;;;;;;;3.65;0.30;;;4.50;99.90;;;;;;5002302;28;20305;-83
2020/12/24 05:43:01;;;;;;;0.35;0.32;;;4.50;99.90;;;;;;4995870;28;20054;-83
2020/12/24 05:45:28;;;;;;;0.55;0.10;;;4.50;99.90;;;;;;5001093;28;20068;-82
2020/12/24 05:48:23;;;;;;;0.45;0.30;;;4.50;99.90;;;;;;4994708;28;20062;-83
2020/12/24 05:50:48;;;;;;;0.10;0.10;;;4.60;99.90;;;;;;4983909;28;20104;-83
2020/12/24 05:53:19;;;;;;;2.42;0.45;;;4.60;99.90;;;;;;4997905;28;20387;-81
2020/12/24 05:55:45;;;;;;;0.13;0.13;;;4.70;99.90;;;;;;4995646;28;20474;-80
2020/12/24 05:58:11;;;;;;;0.13;0.10;;;4.60;99.90;;;;;;4988343;28;20069;-79
2020/12/24 06:00:42;;;;;;;0.55;0.13;;;4.60;99.90;;;;;;5004096;28;20030;-80
2020/12/24 06:03:17;;;;;;;0.75;0.32;;;4.60;99.90;;;;;;4993545;28;20108;-80
2020/12/24 06:06:00;;;;;;;0.40;0.10;;;4.70;99.90;;;;;;4991012;28;20038;-80
2020/12/24 06:08:33;;;;;;;0.32;0.20;;;4.70;99.90;;;;;;5003163;28;20129;-79
2020/12/24 06:11:09;;;;;;;1.65;0.28;;;4.70;99.90;;;;;;5004350;28;20026;-80
2020/12/24 06:13:43;;;;;;;0.22;0.10;;;4.80;99.90;;;;;;4999377;28;20025;-80
2020/12/24 06:16:11;;;;;;;0.57;0.13;;;4.80;99.90;;;;;;4985053;28;21466;-80
2020/12/24 06:18:43;;;;;;;0.00;0.00;;;4.80;99.90;;;;;;4998030;28;20042;-81
2020/12/24 06:21:17;;;;;;;3.00;0.22;;;4.80;99.90;;;;;;4993416;28;20030;-81
2020/12/24 06:23:45;;;;;;;0.28;0.17;;;4.80;99.90;;;;;;5009055;28;20052;-80
2020/12/24 06:26:17;;;;;;;0.13;0.10;;;4.80;99.90;;;;;;5021305;28;20030;-80
2020/12/24 06:28:43;;;;;;;0.65;0.52;;;4.70;99.90;;;;;;5018049;28;20038;-79
2020/12/24 06:31:11;;;;;;;0.85;0.20;;;4.70;99.90;;;;;;5016281;28;20061;-79
2020/12/24 06:33:37;;;;;;;0.70;0.10;;;4.80;99.90;;;;;;4994749;28;20080;-80
2020/12/24 06:36:03;;;;;;;1.48;0.20;;;4.80;99.90;;;;;;5003946;28;20037;-79
2020/12/24 06:38:54;;;;;;;0.05;0.03;;;4.90;99.90;;;;;;4997255;28;20030;-81
2020/12/24 06:41:29;;;;;;;0.47;0.13;;;4.90;99.90;;;;;;4989449;28;20046;-80
2020/12/24 06:43:56;;;;;;;1.25;0.20;;;5.00;99.90;;;;;;4997782;28;20478;-80
2020/12/24 06:46:22;;;;;;;0.20;0.10;;;5.00;99.90;;;;;;4996216;28;20077;-80
2020/12/24 06:49:03;;;;;;;0.20;0.10;;;4.90;99.90;;;;;;4989884;28;20129;-80
2020/12/24 06:51:49;;;;;;;0.13;0.13;;;4.90;99.90;;;;;;4999857;28;20050;-80
2020/12/24 06:54:25;;;;;;;0.20;0.10;;;5.00;99.90;;;;;;4999345;28;20029;-80
2020/12/24 06:57:20;;;;;;;2.10;0.32;;;5.00;99.90;;;;;;4996223;28;20038;-80
2020/12/24 06:59:46;;;;;;;0.32;0.20;;;5.00;99.90;;;;;;4996258;28;20029;-79
2020/12/24 07:02:23;;;;;;;1.30;0.30;;;5.00;99.90;;;;;;5003602;28;20109;-82
2020/12/24 07:04:48;;;;;;;0.40;0.30;;;5.10;99.90;;;;;;4990402;28;20439;-80
2020/12/24 07:07:34;;;;;;;2.58;0.30;;;5.10;99.90;;;;;;4999998;28;20122;-80
2020/12/24 07:10:00;;;;;;;0.85;0.30;;;5.10;99.90;;;;;;5000748;28;20049;-79
2020/12/24 07:12:33;;;;;;;0.93;0.40;;;5.00;99.90;;;;;;4997376;28;20035;-81
2020/12/24 07:15:19;;;;;;;1.92;0.45;;;5.00;99.90;;;;;;4985198;28;20046;-80
2020/12/24 07:17:45;;;;;;;2.25;0.30;;;5.10;99.90;;;;;;4991257;28;20038;-80
2020/12/24 07:20:15;;;;;;;1.00;0.30;;;5.10;99.90;;;;;;4997053;28;20122;-81
2020/12/24 07:22:43;;;;;;;0.43;0.35;;;5.10;99.90;;;;;;4997654;28;20061;-82
2020/12/24 07:25:09;;;;;;;2.95;0.30;;;5.10;99.90;;;;;;4995605;28;20025;-81
2020/12/24 07:27:48;;;;;;;0.63;0.63;;;5.10;99.90;;;;;;5008831;28;20026;-81
2020/12/24 07:30:14;;;;;;;0.30;0.30;;;5.10;99.90;;;;;;4995509;28;20034;-81
2020/12/24 07:32:41;;;;;;;1.10;0.77;;;5.20;99.90;;;;;;4992297;28;20361;-81
2020/12/24 07:35:07;;;;;;;0.60;0.60;;;5.20;99.90;;;;;;4988531;28;20081;-81
2020/12/24 07:37:34;;;;;;;0.88;0.88;;;5.20;99.90;;;;;;4986568;28;20478;-81
2020/12/24 07:40:00;;;;;;;0.40;0.40;;;5.30;99.90;;;;;;4993265;28;20038;-80
2020/12/24 07:42:26;;;;;;;0.98;0.35;;;5.30;99.90;;;;;;4989944;28;20037;-80
2020/12/24 07:44:52;;;;;;;0.50;0.50;;;5.30;99.90;;;;;;4999103;28;20109;-81
2020/12/24 07:47:18;;;;;;;0.40;0.40;;;5.20;99.90;;;;;;5002065;28;20111;-81
2020/12/24 07:49:53;;;;;;;0.50;0.50;;;5.30;99.90;;;;;;5002482;28;20177;-81
2020/12/24 07:52:19;;;;;;;1.15;0.70;;;5.30;99.90;;;;;;5000783;28;20035;-80
2020/12/24 07:54:45;;;;;;;1.27;0.50;;;5.40;99.90;;;;;;4994060;28;20026;-81
2020/12/24 07:57:18;;;;;;;1.02;1.00;;;5.40;99.90;;;;;;5002504;28;20018;-80
2020/12/24 07:59:44;;;;;;;2.45;1.13;;;5.40;99.90;;;;;;5005506;28;20045;-81
2020/12/24 08:02:10;;;;;;;1.38;1.13;;;5.40;99.90;;;;;;5014061;28;20038;-80
2020/12/24 08:04:36;;;;;;;2.80;1.15;;;5.40;99.90;;;;;;5015885;28;20034;-80
2020/12/24 08:07:02;;;;;;;1.80;1.15;;;5.40;99.90;;;;;;5018054;28;20022;-80
2020/12/24 08:09:27;;;;;;;2.03;1.20;;;5.40;99.90;;;;;;5019826;28;20022;-80
2020/12/24 08:11:55;;;;;;;1.92;1.67;;;5.40;99.90;;;;;;5018162;28;20022;-81
2020/12/24 08:14:28;;;;;;;3.08;1.17;;;5.50;99.90;;;;;;5004409;28;20038;-81
2020/12/24 08:17:05;;;;;;;1.42;0.90;;;5.50;99.90;;;;;;5011791;28;20493;-80
2020/12/24 08:19:39;;;;;;;4.78;1.25;;;5.50;99.90;;;;;;4982393;28;20035;-81
2020/12/24 08:22:41;;;;;;;1.85;1.20;;;5.50;99.90;;;;;;4992906;28;20121;-80
2020/12/24 08:25:08;;;;;;;3.72;1.83;;;5.50;99.90;;;;;;4979098;28;20062;-81
2020/12/24 08:27:35;;;;;;;2.80;1.15;;;5.60;99.90;;;;;;4992635;28;20026;-80
2020/12/24 08:30:12;;;;;;;5.00;1.50;;;5.60;99.90;;;;;;4979582;28;20165;-81
2020/12/24 08:32:38;;;;;;;1.95;1.05;;;5.50;99.90;;;;;;4996007;28;20510;-81
2020/12/24 08:35:09;;;;;;;1.75;1.27;;;5.50;99.90;;;;;;4979270;28;20491;-80
2020/12/24 08:37:35;;;;;;;3.90;1.45;;;5.60;99.90;;;;;;4995903;28;20038;-80
2020/12/24 08:40:24;;;;;;;2.60;0.75;;;5.60;99.90;;;;;;4989617;28;20346;-81
2020/12/24 08:42:52;;;;;;;1.23;0.85;;;5.70;99.90;;;;;;4990635;28;20407;-81
2020/12/24 08:45:18;;;;;;;1.60;0.60;;;5.80;99.90;;;;;;4976977;28;20030;-80
2020/12/24 08:47:44;;;;;;;1.88;0.93;;;5.90;99.90;;;;;;4978346;28;20494;-80
2020/12/24 08:50:09;;;;;;;4.20;0.90;;;5.80;99.90;;;;;;4985729;28;20516;-81
2020/12/24 08:52:38;;;;;;;1.88;1.20;;;5.80;99.90;;;;;;4992377;28;20426;-81
2020/12/24 08:55:06;;;;;;;4.05;0.82;;;5.90;99.90;;;;;;4992049;28;20066;-81
2020/12/24 08:57:35;;;;;;;2.05;1.00;;;5.90;99.90;;;;;;4995224;28;20063;-81
2020/12/24 09:00:06;;;;;;;1.92;1.15;;;5.90;99.90;;;;;;4990747;28;20069;-81
2020/12/24 09:02:34;;;;;;;1.10;0.80;;;5.80;99.90;;;;;;4994979;28;20073;-81
2020/12/24 09:05:01;;;;;;;2.20;0.75;;;5.90;99.90;;;;;;4994002;28;20360;-80
2020/12/24 09:07:34;;;;;;;1.88;1.13;;;5.90;99.90;;;;;;4988467;28;20069;-81
2020/12/24 09:10:05;;;;;;;8.90;1.60;;;5.80;99.90;;;;;;4975993;28;20569;-80
2020/12/24 09:12:30;;;;;;;5.18;1.02;;;5.80;99.90;;;;;;4995587;28;20030;-80
2020/12/24 09:15:24;;;;;;;2.35;0.80;;;5.80;99.90;;;;;;4994733;28;20038;-80
2020/12/24 09:17:52;;;;;;;2.78;0.80;;;5.80;99.90;;;;;;4976682;28;20070;-79
2020/12/24 09:20:21;;;;;;;;;;;5.80;99.90;;;;;;4989370;28;20064;-79
2020/12/24 09:22:52;;;;;;;4.43;1.23;;;5.90;99.90;;;;;;4991988;28;20263;-79
2020/12/24 09:25:31;;;;;;;1.35;1.23;;;5.80;99.90;;;;;;4976159;28;20038;-79
2020/12/24 09:27:56;;;;;;;1.65;1.30;;;5.80;99.90;;;;;;4982797;28;20026;-79
2020/12/24 09:30:22;;;;;;;2.28;1.27;;;5.80;99.90;;;;;;4990169;28;20372;-78
2020/12/24 09:33:02;;;;;;;6.78;1.10;;;5.80;99.90;;;;;;4994906;28;20033;-79
2020/12/24 09:35:29;;;;;;;5.07;1.17;;;5.90;99.90;;;;;;5014580;28;20006;-80
2020/12/24 09:37:55;;;;;;;0.93;0.93;;;6.00;99.90;;;;;;5009489;28;20077;-79
2020/12/24 09:40:22;;;;;;;1.92;1.27;;;6.00;99.90;;;;;;5007352;28;20058;-78
2020/12/24 09:42:48;;;;;;;3.38;1.77;;;6.10;99.90;;;;;;5015023;28;20050;-80
2020/12/24 09:45:14;;;;;;;8.73;2.42;;;6.10;99.90;;;;;;5023222;28;20042;-80
2020/12/24 09:47:43;;;;;;;4.82;2.00;;;6.00;99.90;;;;;;5007824;28;20019;-84
2020/12/24 09:50:09;;;;;;;8.35;2.33;;;6.10;99.90;;;;;;5002241;28;20054;-78
2020/12/24 09:52:35;;;;;;;6.82;1.73;;;6.10;99.90;;;;;;4990177;28;20019;-79
2020/12/24 09:55:00;;;;;;;7.82;2.10;;;6.10;99.90;;;;;;4977808;28;20043;-79
2020/12/24 09:57:26;;;;;;;6.45;2.03;;;6.10;99.90;;;;;;4979020;28;20058;-79
2020/12/24 09:59:52;;;;;;;6.38;1.83;;;6.20;99.90;;;;;;4980658;28;20415;-79
2020/12/24 10:02:17;;;;;;;5.97;1.30;;;6.20;99.90;;;;;;4990990;28;20023;-80
2020/12/24 10:04:43;;;;;;;9.00;1.73;;;6.20;99.90;;;;;;4984855;28;20054;-78
2020/12/24 10:07:09;;;;;;;6.63;1.50;;;6.30;99.90;;;;;;4980487;28;20030;-80
2020/12/24 10:09:35;;;;;;;15.95;1.40;;;6.30;99.90;;;;;;4978530;28;20031;-80
2020/12/24 10:12:01;;;;;;;11.25;1.23;;;6.50;99.90;;;;;;4981762;28;20089;-79
2020/12/24 10:14:27;;;;;;;2.35;0.80;;;6.50;99.90;;;;;;4991259;28;20031;-80
2020/12/24 10:16:52;;;;;;;8.10;1.17;;;6.50;99.90;;;;;;4997594;28;20046;-79
2020/12/24 10:19:18;;;;;;;17.48;1.25;;;6.60;99.90;;;;;;4979802;28;20037;-79
2020/12/24 10:21:44;;;;;;;15.57;1.55;;;6.70;99.90;;;;;;4992718;28;20121;-79
2020/12/24 10:24:09;;;;;;;14.00;1.33;;;6.70;99.90;;;;;;4987616;28;20031;-79
2020/12/24 10:26:35;;;;;;;11.85;1.30;;;6.80;99.90;;;;;;4977798;28;20034;-79
2020/12/24 10:29:01;;;;;;;7.82;1.60;;;6.80;99.90;;;;;;4993804;28;20103;-82
2020/12/24 10:31:26;;;;;;;7.65;1.10;;;6.80;99.90;;;;;;4992623;28;20022;-82
2020/12/24 10:33:52;;;;;;;15.90;1.63;;;6.90;99.90;;;;;;4994121;28;20039;-82
2020/12/24 10:36:22;;;;;;;7.32;2.25;;;6.90;99.90;;;;;;4990660;28;20057;-82
2020/12/24 10:38:48;;;;;;;4.25;1.20;;;6.90;99.90;;;;;;4992187;28;20038;-82
2020/12/24 10:41:14;;;;;;;8.73;1.17;;;6.90;99.90;;;;;;4985439;28;20033;-82
2020/12/24 10:43:40;;;;;;;10.23;1.60;;;6.90;99.90;;;;;;4987549;28;20041;-82
2020/12/24 10:46:06;;;;;;;9.93;1.20;;;6.90;99.90;;;;;;4987016;28;20031;-82
2020/12/24 10:48:31;;;;;;;9.50;1.40;;;7.00;99.90;;;;;;4974990;28;20038;-82
2020/12/24 10:50:57;;;;;;;14.18;2.05;;;7.00;99.90;;;;;;4987513;28;20406;-82
2020/12/24 10:53:22;;;;;;;18.65;2.03;;;7.10;99.90;;;;;;4979740;28;20027;-81
2020/12/24 10:55:48;;;;;;;12.43;1.65;;;7.10;99.90;;;;;;4986971;28;20027;-81
2020/12/24 10:58:14;;;;;;;10.50;1.35;;;7.00;99.90;;;;;;4988355;28;20018;-81
2020/12/24 11:00:40;;;;;;;9.38;1.55;;;7.10;99.90;;;;;;4986363;28;20034;-81
2020/12/24 11:03:06;;;;;;;4.45;1.25;;;7.10;99.90;;;;;;4992391;28;20019;-81
2020/12/24 11:05:32;;;;;;;10.32;1.30;;;7.10;99.90;;;;;;4990343;28;20486;-81
2020/12/24 11:07:57;;;;;;;4.45;0.75;;;7.10;99.90;;;;;;4995552;28;20026;-81
2020/12/24 11:10:23;;;;;;;11.55;1.17;;;7.10;99.90;;;;;;4987547;28;20054;-81
2020/12/24 11:12:48;;;;;;;9.68;0.70;;;7.20;99.90;;;;;;4994813;28;20022;-81
2020/12/24 11:15:14;;;;;;;10.80;2.10;;;7.10;99.90;;;;;;5008258;28;20467;-81
2020/12/24 11:17:40;;;;;;;3.50;0.82;;;7.20;99.90;;;;;;5002350;28;20038;-81
2020/12/24 11:20:05;;;;;;;4.03;0.80;;;7.20;99.90;;;;;;5008725;28;20026;-81
2020/12/24 11:22:31;;;;;;;6.10;1.02;;;7.20;99.90;;;;;;5015585;28;20046;-81
2020/12/24 11:24:58;;;;;;;11.18;2.05;;;7.20;99.90;;;;;;5010002;28;20090;-81
2020/12/24 11:27:23;;;;;;;12.23;1.17;;;7.40;99.90;;;;;;5018281;28;20034;-81
2020/12/24 11:29:49;;;;;;;8.07;0.80;;;7.50;99.90;;;;;;5000106;28;20494;-81
2020/12/24 11:32:15;;;;;;;6.88;1.23;;;7.50;99.90;;;;;;4992878;28;20022;-80
2020/12/24 11:34:40;;;;;;;11.50;1.23;;;7.40;99.90;;;;;;4986547;28;20040;-81
2020/12/24 11:37:06;;;;;;;7.22;0.95;;;7.40;99.90;;;;;;4985824;28;20034;-80
2020/12/24 11:39:32;;;;;;;6.70;1.23;;;7.40;99.90;;;;;;4986787;28;20717;-81
2020/12/24 11:41:58;;;;;;;14.23;1.27;;;7.40;99.90;;;;;;4985108;28;20022;-81
2020/12/24 11:44:23;;;;;;;6.80;0.90;;;7.50;99.90;;;;;;4987126;28;20430;-82
2020/12/24 11:46:49;;;;;;;2.20;0.88;;;7.50;99.90;;;;;;4984201;28;20034;-81
2020/12/24 11:49:16;;;;;;;8.45;0.93;;;7.50;99.90;;;;;;4989870;28;20521;-81
2020/12/24 11:51:41;;;;;;;16.83;1.88;;;7.50;99.90;;;;;;4994790;28;20524;-81
2020/12/24 11:54:07;;;;;;;5.47;0.98;;;7.50;99.90;;;;;;4989622;28;20022;-81
2020/12/24 11:56:32;;;;;;;7.65;1.77;;;7.50;99.90;;;;;;4994307;28;20025;-82
2020/12/24 11:58:58;;;;;;;11.30;1.42;;;7.50;99.90;;;;;;4991435;28;20034;-82
2020/12/24 12:01:24;;;;;;;11.02;1.92;;;7.60;99.90;;;;;;4989645;28;20018;-82
2020/12/24 12:03:51;;;;;;;12.15;2.10;;;7.60;99.90;;;;;;4985300;28;20022;-82
2020/12/24 12:06:17;;;;;;;11.02;2.30;;;7.60;99.90;;;;;;4992656;28;20613;-82
2020/12/24 12:08:43;;;;;;;7.93;1.20;;;7.50;99.90;;;;;;4993484;28;20479;-82
2020/12/24 12:11:09;;;;;;;7.32;1.13;;;7.50;99.90;;;;;;4995398;28;20109;-81
2020/12/24 12:13:38;;;;;;;4.97;0.80;;;7.50;99.90;;;;;;4994230;28;20113;-83
2020/12/24 12:16:08;;;;;;;12.30;1.73;;;7.50;99.90;;;;;;4991436;28;20030;-79
2020/12/24 12:18:35;;;;;;;10.73;1.65;;;7.60;99.90;;;;;;4992975;28;20061;-80
2020/12/24 12:21:01;;;;;;;3.70;0.73;;;7.50;99.90;;;;;;4992631;28;20038;-81
2020/12/24 12:23:27;;;;;;;5.28;1.17;;;7.50;99.90;;;;;;4990404;28;20125;-80
2020/12/24 12:25:53;;;;;;;7.18;0.82;;;7.40;99.90;;;;;;4994678;28;20117;-80
2020/12/24 12:28:18;;;;;;;7.55;2.15;;;7.40;99.90;;;;;;4992009;28;20030;-81
2020/12/24 12:30:44;;;;;;;2.95;0.85;;;7.30;99.90;;;;;;4996863;28;20455;-81
2020/12/24 12:33:09;;;;;;;3.00;0.50;;;7.40;99.90;;;;;;4994928;28;20037;-81
2020/12/24 12:35:35;;;;;;;18.70;0.98;;;7.40;99.90;;;;;;4990009;28;20394;-81
2020/12/24 12:38:01;;;;;;;2.13;0.50;;;7.40;99.90;;;;;;4992783;28;20097;-81
2020/12/24 12:40:27;;;;;;;7.35;1.38;;;7.30;99.90;;;;;;4991855;28;20487;-81
2020/12/24 12:42:53;;;;;;;8.10;1.30;;;7.30;99.90;;;;;;4992802;28;20034;-81
2020/12/24 12:45:18;;;;;;;10.07;1.95;;;7.20;99.90;;;;;;4994293;28;20025;-81
2020/12/24 12:47:44;;;;;;;7.25;0.65;;;7.20;99.90;;;;;;4990997;28;20023;-81
2020/12/24 12:50:12;;;;;;;6.05;1.00;;;7.20;99.90;;;;;;4991224;28;20110;-82
2020/12/24 12:52:38;;;;;;;1.73;0.52;;;7.00;99.90;;;;;;4997031;28;20026;-81
2020/12/24 12:55:05;;;;;;;5.50;1.02;;;7.00;99.90;;;;;;5006745;28;20041;-80
2020/12/24 12:57:35;;;;;;;2.35;0.63;;;7.00;99.90;;;;;;5010018;28;20030;-81